Portada
METAR-TAF:

METAR-TAF

Aeroports :

Surgut, Rússia

latitud: 61-15N, longitud: 073-30E, altitud: 44 m

Observació

L'informe es va fer fa 21 minuts, a les 04:00 UTC
Vent 8 kt del Sud-Oest, variant entre Sud i Oest/Sud-Oest
Temperatura 4°C
Humitat 75%
Pressió 1006 hPa
Visibilitat 10 km o més
sense núvols per sota de 1500 mi sense presència de cumulonimbus.

METAR: USRR 300400Z 23004MPS 190V250 CAVOK 04/M00 Q1006 R25/CLRD60 NOSIG RMK QFE749

Hora: 09:21 (04:21 UTC)

Pronòstic

L'informe es va fer fa 2 hores i 26 minuts, a les 01:55 UTC
Pronòstic vàlid del 30 a les 03 UTC al 31 a les 03 UTC
Vent 10 kt del Sud-Oest amb ràfegues de 19 kt
Visibilitat 10 km o més
Núvols disperses a una alçada de 2000 ft
Temporalment
l' 30 a les 03 UTC al 30 a les 15 UTC
Visibilitat: 3100 m
Núvols disperses a una alçada de 1100 ft
Cel ennuvolat a una alçada de 1500 ft, Cumulonimbus.
xàfecs de neu, pluja

TAF: USRR 300155Z 3003/3103 23005G10MPS 9999 SCT020 TEMPO 3003/3015 3100 -SHSNRA SCT011 BKN015CB

Observacions i pronòstics meteorològics de més de 4000 aeroports (METAR i TAF).

Les estacions disponibles són els punts grocs i vermells al mapa.

Posi el ratolí al punt desitjat per veure el nom de l'estació.

Feu clic per veure les observacions i els pronòstics meteorològics.

Per canviar el mapa: feu clic els botons verds amb una creu de color negre per apropar; al botó verd amb un guió per allunyar la imatge; o en les fletxes verdes per a mapes adjacents.


METAR-TAF: